sensor_id;sensor_type;location;lat;lon;timestamp;temperature;humidity
8979;DHT22;4524;51.364;5.448;2023-09-08T00:00:35;20.20;99.90
8979;DHT22;4524;51.364;5.448;2023-09-08T00:03:21;20.20;99.90
8979;DHT22;4524;51.364;5.448;2023-09-08T00:05:49;20.20;99.90
8979;DHT22;4524;51.364;5.448;2023-09-08T00:08:19;20.10;99.90
8979;DHT22;4524;51.364;5.448;2023-09-08T00:10:47;20.10;99.90
8979;DHT22;4524;51.364;5.448;2023-09-08T00:13:15;20.10;99.90
8979;DHT22;4524;51.364;5.448;2023-09-08T00:15:43;20.10;99.90
8979;DHT22;4524;51.364;5.448;2023-09-08T00:18:13;20.10;99.90
8979;DHT22;4524;51.364;5.448;2023-09-08T00:20:41;20.00;99.90
8979;DHT22;4524;51.364;5.448;2023-09-08T00:23:09;20.00;99.90
8979;DHT22;4524;51.364;5.448;2023-09-08T00:25:38;20.00;99.90
8979;DHT22;4524;51.364;5.448;2023-09-08T00:28:07;20.00;99.90
8979;DHT22;4524;51.364;5.448;2023-09-08T00:30:35;19.80;99.90
8979;DHT22;4524;51.364;5.448;2023-09-08T00:33:04;19.80;99.90
8979;DHT22;4524;51.364;5.448;2023-09-08T00:35:35;19.80;99.90
8979;DHT22;4524;51.364;5.448;2023-09-08T00:38:04;19.70;99.90
8979;DHT22;4524;51.364;5.448;2023-09-08T00:40:32;19.70;99.90
8979;DHT22;4524;51.364;5.448;2023-09-08T00:43:02;19.70;99.90
8979;DHT22;4524;51.364;5.448;2023-09-08T00:45:30;19.70;99.90
8979;DHT22;4524;51.364;5.448;2023-09-08T00:47:59;19.70;99.90
8979;DHT22;4524;51.364;5.448;2023-09-08T00:50:27;19.60;99.90
8979;DHT22;4524;51.364;5.448;2023-09-08T00:52:55;19.60;99.90
8979;DHT22;4524;51.364;5.448;2023-09-08T00:55:23;19.60;99.90
8979;DHT22;4524;51.364;5.448;2023-09-08T00:57:52;19.50;99.90
8979;DHT22;4524;51.364;5.448;2023-09-08T01:00:22;19.50;99.90
8979;DHT22;4524;51.364;5.448;2023-09-08T01:02:49;19.40;99.90
8979;DHT22;4524;51.364;5.448;2023-09-08T01:05:18;19.40;99.90
8979;DHT22;4524;51.364;5.448;2023-09-08T01:07:47;19.40;99.90
8979;DHT22;4524;51.364;5.448;2023-09-08T01:10:16;19.30;99.90
8979;DHT22;4524;51.364;5.448;2023-09-08T01:12:44;19.30;99.90
8979;DHT22;4524;51.364;5.448;2023-09-08T01:15:12;19.30;99.90
8979;DHT22;4524;51.364;5.448;2023-09-08T01:17:42;19.30;99.90
8979;DHT22;4524;51.364;5.448;2023-09-08T01:20:16;19.20;99.90
8979;DHT22;4524;51.364;5.448;2023-09-08T01:23:08;19.20;99.90
8979;DHT22;4524;51.364;5.448;2023-09-08T01:25:44;19.20;99.90
8979;DHT22;4524;51.364;5.448;2023-09-08T01:28:14;19.20;99.90
8979;DHT22;4524;51.364;5.448;2023-09-08T01:30:45;19.10;99.90
8979;DHT22;4524;51.364;5.448;2023-09-08T01:33:13;19.10;99.90
8979;DHT22;4524;51.364;5.448;2023-09-08T01:35:43;19.10;99.90
8979;DHT22;4524;51.364;5.448;2023-09-08T01:38:11;19.10;99.90
8979;DHT22;4524;51.364;5.448;2023-09-08T01:40:41;19.10;99.90
8979;DHT22;4524;51.364;5.448;2023-09-08T01:43:29;19.10;99.90
8979;DHT22;4524;51.364;5.448;2023-09-08T01:45:57;19.10;99.90
8979;DHT22;4524;51.364;5.448;2023-09-08T01:48:25;19.10;99.90
8979;DHT22;4524;51.364;5.448;2023-09-08T01:50:54;19.10;99.90
8979;DHT22;4524;51.364;5.448;2023-09-08T01:53:21;19.10;99.90
8979;DHT22;4524;51.364;5.448;2023-09-08T01:55:52;19.00;99.90
8979;DHT22;4524;51.364;5.448;2023-09-08T01:58:20;19.00;99.90
8979;DHT22;4524;51.364;5.448;2023-09-08T02:00:49;19.00;99.90
8979;DHT22;4524;51.364;5.448;2023-09-08T02:03:38;18.90;99.90
8979;DHT22;4524;51.364;5.448;2023-09-08T02:06:06;18.90;99.90
8979;DHT22;4524;51.364;5.448;2023-09-08T02:08:34;18.90;99.90
8979;DHT22;4524;51.364;5.448;2023-09-08T02:11:06;18.90;99.90
8979;DHT22;4524;51.364;5.448;2023-09-08T02:13:35;18.80;99.90
8979;DHT22;4524;51.364;5.448;2023-09-08T02:16:03;18.80;99.90
8979;DHT22;4524;51.364;5.448;2023-09-08T02:18:31;18.70;99.90
8979;DHT22;4524;51.364;5.448;2023-09-08T02:21:00;18.70;99.90
8979;DHT22;4524;51.364;5.448;2023-09-08T02:23:28;18.60;99.90
8979;DHT22;4524;51.364;5.448;2023-09-08T02:25:56;18.60;99.90
8979;DHT22;4524;51.364;5.448;2023-09-08T02:28:26;18.60;99.90
8979;DHT22;4524;51.364;5.448;2023-09-08T02:30:54;18.60;99.90
8979;DHT22;4524;51.364;5.448;2023-09-08T02:33:23;18.60;99.90
8979;DHT22;4524;51.364;5.448;2023-09-08T02:35:51;18.50;99.90
8979;DHT22;4524;51.364;5.448;2023-09-08T02:38:19;18.50;99.90
8979;DHT22;4524;51.364;5.448;2023-09-08T02:40:47;18.60;99.90
8979;DHT22;4524;51.364;5.448;2023-09-08T02:43:15;18.50;99.90
8979;DHT22;4524;51.364;5.448;2023-09-08T02:45:46;18.50;99.90
8979;DHT22;4524;51.364;5.448;2023-09-08T02:48:15;18.60;99.90
8979;DHT22;4524;51.364;5.448;2023-09-08T02:51:02;18.50;99.90
8979;DHT22;4524;51.364;5.448;2023-09-08T02:53:30;18.40;99.90
8979;DHT22;4524;51.364;5.448;2023-09-08T02:56:16;18.40;99.90
8979;DHT22;4524;51.364;5.448;2023-09-08T02:58:45;18.30;99.90
8979;DHT22;4524;51.364;5.448;2023-09-08T03:03:47;18.30;99.90
8979;DHT22;4524;51.364;5.448;2023-09-08T03:06:19;18.20;99.90
8979;DHT22;4524;51.364;5.448;2023-09-08T03:08:48;18.20;99.90
8979;DHT22;4524;51.364;5.448;2023-09-08T03:11:16;18.20;99.90
8979;DHT22;4524;51.364;5.448;2023-09-08T03:13:45;18.20;99.90
8979;DHT22;4524;51.364;5.448;2023-09-08T03:16:33;18.20;99.90
8979;DHT22;4524;51.364;5.448;2023-09-08T03:19:03;18.10;99.90
8979;DHT22;4524;51.364;5.448;2023-09-08T03:21:31;18.00;99.90
8979;DHT22;4524;51.364;5.448;2023-09-08T03:23:59;18.00;99.90
8979;DHT22;4524;51.364;5.448;2023-09-08T03:26:27;18.00;99.90
8979;DHT22;4524;51.364;5.448;2023-09-08T03:28:55;18.00;99.90
8979;DHT22;4524;51.364;5.448;2023-09-08T03:31:23;18.00;99.90
8979;DHT22;4524;51.364;5.448;2023-09-08T03:33:53;18.00;99.90
8979;DHT22;4524;51.364;5.448;2023-09-08T03:36:21;18.00;99.90
8979;DHT22;4524;51.364;5.448;2023-09-08T03:38:49;18.00;99.90
8979;DHT22;4524;51.364;5.448;2023-09-08T03:41:18;17.90;99.90
8979;DHT22;4524;51.364;5.448;2023-09-08T03:43:46;17.90;99.90
8979;DHT22;4524;51.364;5.448;2023-09-08T03:46:15;17.80;99.90
8979;DHT22;4524;51.364;5.448;2023-09-08T03:48:44;17.80;99.90
8979;DHT22;4524;51.364;5.448;2023-09-08T03:51:14;17.80;99.90
8979;DHT22;4524;51.364;5.448;2023-09-08T03:53:42;17.90;99.90
8979;DHT22;4524;51.364;5.448;2023-09-08T03:56:10;17.90;99.90
8979;DHT22;4524;51.364;5.448;2023-09-08T03:58:38;17.90;99.90
8979;DHT22;4524;51.364;5.448;2023-09-08T04:01:06;17.80;99.90
8979;DHT22;4524;51.364;5.448;2023-09-08T04:03:34;17.80;99.90
8979;DHT22;4524;51.364;5.448;2023-09-08T04:06:04;17.80;99.90
8979;DHT22;4524;51.364;5.448;2023-09-08T04:08:33;17.80;99.90
8979;DHT22;4524;51.364;5.448;2023-09-08T04:11:01;17.80;99.90
8979;DHT22;4524;51.364;5.448;2023-09-08T04:13:30;17.80;99.90
8979;DHT22;4524;51.364;5.448;2023-09-08T04:15:59;18.00;99.90
8979;DHT22;4524;51.364;5.448;2023-09-08T04:18:27;18.50;99.90
8979;DHT22;4524;51.364;5.448;2023-09-08T04:20:55;18.80;99.90
8979;DHT22;4524;51.364;5.448;2023-09-08T04:23:23;19.20;99.90
8979;DHT22;4524;51.364;5.448;2023-09-08T04:25:53;19.20;99.90
8979;DHT22;4524;51.364;5.448;2023-09-08T04:28:21;19.20;99.90
8979;DHT22;4524;51.364;5.448;2023-09-08T04:30:49;19.20;99.90
8979;DHT22;4524;51.364;5.448;2023-09-08T04:33:17;19.30;99.90
8979;DHT22;4524;51.364;5.448;2023-09-08T04:35:45;19.40;99.90
8979;DHT22;4524;51.364;5.448;2023-09-08T04:38:14;19.30;99.90
8979;DHT22;4524;51.364;5.448;2023-09-08T04:40:42;19.40;99.90
8979;DHT22;4524;51.364;5.448;2023-09-08T04:43:15;19.30;99.90
8979;DHT22;4524;51.364;5.448;2023-09-08T04:45:43;19.50;99.90
8979;DHT22;4524;51.364;5.448;2023-09-08T04:48:11;19.40;99.90
8979;DHT22;4524;51.364;5.448;2023-09-08T04:50:59;19.20;99.90
8979;DHT22;4524;51.364;5.448;2023-09-08T04:53:47;19.00;99.90
8979;DHT22;4524;51.364;5.448;2023-09-08T04:56:16;19.00;99.90
8979;DHT22;4524;51.364;5.448;2023-09-08T04:58:45;19.00;99.90
8979;DHT22;4524;51.364;5.448;2023-09-08T05:01:14;18.80;99.90
8979;DHT22;4524;51.364;5.448;2023-09-08T05:03:42;18.40;99.90
8979;DHT22;4524;51.364;5.448;2023-09-08T05:06:11;18.20;99.90
8979;DHT22;4524;51.364;5.448;2023-09-08T05:08:40;18.10;99.90
8979;DHT22;4524;51.364;5.448;2023-09-08T05:11:08;18.00;99.90
8979;DHT22;4524;51.364;5.448;2023-09-08T05:13:57;18.00;99.90
8979;DHT22;4524;51.364;5.448;2023-09-08T05:16:26;18.10;99.90
8979;DHT22;4524;51.364;5.448;2023-09-08T05:19:24;18.00;99.90
8979;DHT22;4524;51.364;5.448;2023-09-08T05:21:53;17.90;99.90
8979;DHT22;4524;51.364;5.448;2023-09-08T05:24:22;17.90;99.90
8979;DHT22;4524;51.364;5.448;2023-09-08T05:26:52;17.80;99.90
8979;DHT22;4524;51.364;5.448;2023-09-08T05:29:22;17.80;99.90
8979;DHT22;4524;51.364;5.448;2023-09-08T05:31:51;17.80;99.90
8979;DHT22;4524;51.364;5.448;2023-09-08T05:34:19;17.80;99.90
8979;DHT22;4524;51.364;5.448;2023-09-08T05:36:47;17.70;99.90
8979;DHT22;4524;51.364;5.448;2023-09-08T05:39:16;17.70;99.90
8979;DHT22;4524;51.364;5.448;2023-09-08T05:41:46;17.70;99.90
8979;DHT22;4524;51.364;5.448;2023-09-08T05:44:14;17.70;99.90
8979;DHT22;4524;51.364;5.448;2023-09-08T05:46:44;17.70;99.90
8979;DHT22;4524;51.364;5.448;2023-09-08T05:49:13;17.70;99.90
8979;DHT22;4524;51.364;5.448;2023-09-08T05:51:42;17.80;99.90
8979;DHT22;4524;51.364;5.448;2023-09-08T05:54:11;18.00;99.90
8979;DHT22;4524;51.364;5.448;2023-09-08T05:56:39;18.10;99.90
8979;DHT22;4524;51.364;5.448;2023-09-08T05:59:08;18.10;99.90
8979;DHT22;4524;51.364;5.448;2023-09-08T06:01:36;18.20;99.90
8979;DHT22;4524;51.364;5.448;2023-09-08T06:04:09;18.40;99.90
8979;DHT22;4524;51.364;5.448;2023-09-08T06:06:38;18.70;99.90
8979;DHT22;4524;51.364;5.448;2023-09-08T06:09:06;18.90;99.90
8979;DHT22;4524;51.364;5.448;2023-09-08T06:11:36;19.20;99.90
8979;DHT22;4524;51.364;5.448;2023-09-08T06:14:04;19.20;99.90
8979;DHT22;4524;51.364;5.448;2023-09-08T06:16:37;19.20;99.90
8979;DHT22;4524;51.364;5.448;2023-09-08T06:19:07;19.40;99.90
8979;DHT22;4524;51.364;5.448;2023-09-08T06:21:35;19.30;99.90
8979;DHT22;4524;51.364;5.448;2023-09-08T06:24:06;19.20;99.90
8979;DHT22;4524;51.364;5.448;2023-09-08T06:26:36;19.30;99.90
8979;DHT22;4524;51.364;5.448;2023-09-08T06:29:05;19.50;99.90
8979;DHT22;4524;51.364;5.448;2023-09-08T06:31:34;19.40;99.90
8979;DHT22;4524;51.364;5.448;2023-09-08T06:34:03;19.40;99.90
8979;DHT22;4524;51.364;5.448;2023-09-08T06:36:32;19.40;99.90
8979;DHT22;4524;51.364;5.448;2023-09-08T06:39:02;19.40;99.90
8979;DHT22;4524;51.364;5.448;2023-09-08T06:41:51;19.40;99.90
8979;DHT22;4524;51.364;5.448;2023-09-08T06:44:20;19.50;99.90
8979;DHT22;4524;51.364;5.448;2023-09-08T06:46:48;19.50;99.90
8979;DHT22;4524;51.364;5.448;2023-09-08T06:49:17;19.60;99.90
8979;DHT22;4524;51.364;5.448;2023-09-08T06:51:47;19.70;99.90
8979;DHT22;4524;51.364;5.448;2023-09-08T06:54:16;19.70;99.90
8979;DHT22;4524;51.364;5.448;2023-09-08T06:56:45;19.80;99.90
8979;DHT22;4524;51.364;5.448;2023-09-08T06:59:13;19.80;99.90
8979;DHT22;4524;51.364;5.448;2023-09-08T07:01:41;19.90;99.90
8979;DHT22;4524;51.364;5.448;2023-09-08T07:04:10;20.00;99.90
8979;DHT22;4524;51.364;5.448;2023-09-08T07:06:39;20.10;99.90
8979;DHT22;4524;51.364;5.448;2023-09-08T07:09:13;20.10;99.90
8979;DHT22;4524;51.364;5.448;2023-09-08T07:11:42;20.20;99.90
8979;DHT22;4524;51.364;5.448;2023-09-08T07:14:10;20.20;99.90
8979;DHT22;4524;51.364;5.448;2023-09-08T07:16:38;20.30;99.90
8979;DHT22;4524;51.364;5.448;2023-09-08T07:19:06;20.40;99.90
8979;DHT22;4524;51.364;5.448;2023-09-08T07:21:35;20.40;99.90
8979;DHT22;4524;51.364;5.448;2023-09-08T07:24:25;20.50;99.90
8979;DHT22;4524;51.364;5.448;2023-09-08T07:26:53;20.60;99.90
8979;DHT22;4524;51.364;5.448;2023-09-08T07:29:22;20.70;99.90
8979;DHT22;4524;51.364;5.448;2023-09-08T07:31:50;20.80;99.90
8979;DHT22;4524;51.364;5.448;2023-09-08T07:34:18;20.90;99.90
8979;DHT22;4524;51.364;5.448;2023-09-08T07:36:47;20.90;99.90
8979;DHT22;4524;51.364;5.448;2023-09-08T07:39:15;21.00;99.90
8979;DHT22;4524;51.364;5.448;2023-09-08T07:41:44;21.10;99.90
8979;DHT22;4524;51.364;5.448;2023-09-08T07:44:13;21.20;99.90
8979;DHT22;4524;51.364;5.448;2023-09-08T07:46:41;21.30;99.90
8979;DHT22;4524;51.364;5.448;2023-09-08T07:49:10;21.40;99.90
8979;DHT22;4524;51.364;5.448;2023-09-08T07:51:38;21.50;99.90
8979;DHT22;4524;51.364;5.448;2023-09-08T07:54:06;21.50;99.90
8979;DHT22;4524;51.364;5.448;2023-09-08T07:56:34;21.60;99.90
8979;DHT22;4524;51.364;5.448;2023-09-08T07:59:04;21.70;99.90
8979;DHT22;4524;51.364;5.448;2023-09-08T08:01:32;21.80;99.90
8979;DHT22;4524;51.364;5.448;2023-09-08T08:04:00;21.90;99.90
8979;DHT22;4524;51.364;5.448;2023-09-08T08:06:30;22.00;99.90
8979;DHT22;4524;51.364;5.448;2023-09-08T08:08:58;22.00;99.90
8979;DHT22;4524;51.364;5.448;2023-09-08T08:11:29;22.20;99.90
8979;DHT22;4524;51.364;5.448;2023-09-08T08:13:57;22.30;99.90
8979;DHT22;4524;51.364;5.448;2023-09-08T08:16:26;22.40;99.90
8979;DHT22;4524;51.364;5.448;2023-09-08T08:18:54;22.50;99.90
8979;DHT22;4524;51.364;5.448;2023-09-08T08:21:23;22.60;99.90
8979;DHT22;4524;51.364;5.448;2023-09-08T08:23:51;22.70;99.90
8979;DHT22;4524;51.364;5.448;2023-09-08T08:26:19;22.80;99.90
8979;DHT22;4524;51.364;5.448;2023-09-08T08:28:47;22.90;99.90
8979;DHT22;4524;51.364;5.448;2023-09-08T08:31:15;23.10;99.90
8979;DHT22;4524;51.364;5.448;2023-09-08T08:33:44;23.20;99.90
8979;DHT22;4524;51.364;5.448;2023-09-08T08:36:13;23.20;99.90
8979;DHT22;4524;51.364;5.448;2023-09-08T08:38:42;23.50;99.90
8979;DHT22;4524;51.364;5.448;2023-09-08T08:41:10;23.60;99.90
8979;DHT22;4524;51.364;5.448;2023-09-08T08:43:38;23.60;99.90
8979;DHT22;4524;51.364;5.448;2023-09-08T08:46:06;23.70;99.90
8979;DHT22;4524;51.364;5.448;2023-09-08T08:48:36;23.70;99.90
8979;DHT22;4524;51.364;5.448;2023-09-08T08:51:08;23.80;99.90
8979;DHT22;4524;51.364;5.448;2023-09-08T08:53:39;23.90;99.90
8979;DHT22;4524;51.364;5.448;2023-09-08T08:56:09;24.00;99.90
8979;DHT22;4524;51.364;5.448;2023-09-08T08:58:39;24.10;99.90
8979;DHT22;4524;51.364;5.448;2023-09-08T09:01:07;24.20;99.90
8979;DHT22;4524;51.364;5.448;2023-09-08T09:03:40;24.40;99.90
8979;DHT22;4524;51.364;5.448;2023-09-08T09:06:11;24.40;99.90
8979;DHT22;4524;51.364;5.448;2023-09-08T09:08:40;24.40;99.90
8979;DHT22;4524;51.364;5.448;2023-09-08T09:11:10;24.50;99.90
8979;DHT22;4524;51.364;5.448;2023-09-08T09:13:38;24.60;99.90
8979;DHT22;4524;51.364;5.448;2023-09-08T09:16:06;24.70;99.90
8979;DHT22;4524;51.364;5.448;2023-09-08T09:18:53;24.80;99.90
8979;DHT22;4524;51.364;5.448;2023-09-08T09:21:23;24.90;99.90
8979;DHT22;4524;51.364;5.448;2023-09-08T09:23:52;25.00;99.90
8979;DHT22;4524;51.364;5.448;2023-09-08T09:26:26;25.10;99.90
8979;DHT22;4524;51.364;5.448;2023-09-08T09:28:54;25.10;99.90
8979;DHT22;4524;51.364;5.448;2023-09-08T09:31:25;25.10;99.90
8979;DHT22;4524;51.364;5.448;2023-09-08T09:34:04;25.30;99.90
8979;DHT22;4524;51.364;5.448;2023-09-08T09:36:34;25.40;99.90
8979;DHT22;4524;51.364;5.448;2023-09-08T09:39:02;25.60;99.90
8979;DHT22;4524;51.364;5.448;2023-09-08T09:41:30;25.70;99.80
8979;DHT22;4524;51.364;5.448;2023-09-08T09:43:58;25.70;99.90
8979;DHT22;4524;51.364;5.448;2023-09-08T09:46:28;25.80;99.90
8979;DHT22;4524;51.364;5.448;2023-09-08T09:48:56;26.00;99.60
8979;DHT22;4524;51.364;5.448;2023-09-08T09:51:24;26.00;98.50
8979;DHT22;4524;51.364;5.448;2023-09-08T09:53:55;26.10;98.60
8979;DHT22;4524;51.364;5.448;2023-09-08T09:56:25;26.10;99.30
8979;DHT22;4524;51.364;5.448;2023-09-08T09:58:54;26.30;98.30
8979;DHT22;4524;51.364;5.448;2023-09-08T10:01:24;26.50;98.40
8979;DHT22;4524;51.364;5.448;2023-09-08T10:03:54;26.50;96.50
8979;DHT22;4524;51.364;5.448;2023-09-08T10:06:22;26.60;97.00
8979;DHT22;4524;51.364;5.448;2023-09-08T10:08:52;26.90;96.30
8979;DHT22;4524;51.364;5.448;2023-09-08T10:11:23;26.90;96.00
8979;DHT22;4524;51.364;5.448;2023-09-08T10:13:54;27.20;95.40
8979;DHT22;4524;51.364;5.448;2023-09-08T10:16:27;27.20;94.80
8979;DHT22;4524;51.364;5.448;2023-09-08T10:18:58;27.20;94.20
8979;DHT22;4524;51.364;5.448;2023-09-08T10:21:46;27.20;94.80
8979;DHT22;4524;51.364;5.448;2023-09-08T10:24:18;27.30;94.40
8979;DHT22;4524;51.364;5.448;2023-09-08T10:26:54;27.50;94.00
8979;DHT22;4524;51.364;5.448;2023-09-08T10:29:25;27.50;93.60
8979;DHT22;4524;51.364;5.448;2023-09-08T10:31:55;27.60;93.60
8979;DHT22;4524;51.364;5.448;2023-09-08T10:34:25;27.80;92.90
8979;DHT22;4524;51.364;5.448;2023-09-08T10:36:54;27.80;93.80
8979;DHT22;4524;51.364;5.448;2023-09-08T10:39:34;28.00;92.50
8979;DHT22;4524;51.364;5.448;2023-09-08T10:42:21;28.00;93.70
8979;DHT22;4524;51.364;5.448;2023-09-08T10:44:57;27.90;93.90
8979;DHT22;4524;51.364;5.448;2023-09-08T10:47:26;28.20;93.70
8979;DHT22;4524;51.364;5.448;2023-09-08T10:49:58;28.20;91.80
8979;DHT22;4524;51.364;5.448;2023-09-08T10:52:27;28.30;93.10
8979;DHT22;4524;51.364;5.448;2023-09-08T10:54:58;28.20;93.00
8979;DHT22;4524;51.364;5.448;2023-09-08T10:57:27;28.30;92.40
8979;DHT22;4524;51.364;5.448;2023-09-08T11:00:00;28.40;91.60
8979;DHT22;4524;51.364;5.448;2023-09-08T11:02:33;28.70;91.10
8979;DHT22;4524;51.364;5.448;2023-09-08T11:05:02;28.60;91.80
8979;DHT22;4524;51.364;5.448;2023-09-08T11:07:32;28.50;92.90
8979;DHT22;4524;51.364;5.448;2023-09-08T11:10:01;28.50;92.60
8979;DHT22;4524;51.364;5.448;2023-09-08T11:12:31;28.50;93.80
8979;DHT22;4524;51.364;5.448;2023-09-08T11:15:01;28.70;91.20
8979;DHT22;4524;51.364;5.448;2023-09-08T11:17:32;28.80;89.50
8979;DHT22;4524;51.364;5.448;2023-09-08T11:20:02;29.20;87.70
8979;DHT22;4524;51.364;5.448;2023-09-08T11:22:35;29.30;87.60
8979;DHT22;4524;51.364;5.448;2023-09-08T11:25:07;29.20;87.10
8979;DHT22;4524;51.364;5.448;2023-09-08T11:27:35;29.30;83.70
8979;DHT22;4524;51.364;5.448;2023-09-08T11:30:05;29.30;86.00
8979;DHT22;4524;51.364;5.448;2023-09-08T11:32:35;29.40;84.10
8979;DHT22;4524;51.364;5.448;2023-09-08T11:35:04;29.40;84.80
8979;DHT22;4524;51.364;5.448;2023-09-08T11:37:37;29.50;82.90
8979;DHT22;4524;51.364;5.448;2023-09-08T11:40:08;29.60;82.90
8979;DHT22;4524;51.364;5.448;2023-09-08T11:42:39;29.50;84.60
8979;DHT22;4524;51.364;5.448;2023-09-08T11:45:11;29.50;84.50
8979;DHT22;4524;51.364;5.448;2023-09-08T11:47:41;29.40;84.50
8979;DHT22;4524;51.364;5.448;2023-09-08T11:50:11;29.50;83.70
8979;DHT22;4524;51.364;5.448;2023-09-08T11:52:43;29.40;85.80
8979;DHT22;4524;51.364;5.448;2023-09-08T11:55:13;29.40;81.40
8979;DHT22;4524;51.364;5.448;2023-09-08T11:57:42;29.40;82.70
8979;DHT22;4524;51.364;5.448;2023-09-08T12:00:12;29.50;82.30
8979;DHT22;4524;51.364;5.448;2023-09-08T12:02:44;29.60;84.20
8979;DHT22;4524;51.364;5.448;2023-09-08T12:05:13;29.60;84.20
8979;DHT22;4524;51.364;5.448;2023-09-08T12:07:48;29.60;83.70
8979;DHT22;4524;51.364;5.448;2023-09-08T12:10:17;29.60;84.10
8979;DHT22;4524;51.364;5.448;2023-09-08T12:12:46;29.70;82.20
8979;DHT22;4524;51.364;5.448;2023-09-08T12:15:30;29.70;81.40
8979;DHT22;4524;51.364;5.448;2023-09-08T12:18:00;29.60;81.40
8979;DHT22;4524;51.364;5.448;2023-09-08T12:20:29;29.70;83.90
8979;DHT22;4524;51.364;5.448;2023-09-08T12:22:58;29.70;84.60
8979;DHT22;4524;51.364;5.448;2023-09-08T12:25:29;29.60;81.40
8979;DHT22;4524;51.364;5.448;2023-09-08T12:27:59;29.70;81.40
8979;DHT22;4524;51.364;5.448;2023-09-08T12:30:28;29.80;82.60
8979;DHT22;4524;51.364;5.448;2023-09-08T12:33:01;29.80;81.30
8979;DHT22;4524;51.364;5.448;2023-09-08T12:35:29;29.80;85.70
8979;DHT22;4524;51.364;5.448;2023-09-08T12:38:00;29.90;83.60
8979;DHT22;4524;51.364;5.448;2023-09-08T12:40:32;29.90;82.50
8979;DHT22;4524;51.364;5.448;2023-09-08T12:43:01;29.90;79.60
8979;DHT22;4524;51.364;5.448;2023-09-08T12:45:49;30.00;80.70
8979;DHT22;4524;51.364;5.448;2023-09-08T12:48:17;30.00;79.40
8979;DHT22;4524;51.364;5.448;2023-09-08T12:50:45;30.00;79.70
8979;DHT22;4524;51.364;5.448;2023-09-08T12:53:14;30.00;83.20
8979;DHT22;4524;51.364;5.448;2023-09-08T12:55:45;30.10;81.70
8979;DHT22;4524;51.364;5.448;2023-09-08T12:58:13;30.10;80.60
8979;DHT22;4524;51.364;5.448;2023-09-08T13:00:41;30.20;77.50
8979;DHT22;4524;51.364;5.448;2023-09-08T13:03:09;30.20;77.80
8979;DHT22;4524;51.364;5.448;2023-09-08T13:05:37;30.20;76.60
8979;DHT22;4524;51.364;5.448;2023-09-08T13:08:25;30.20;75.80
8979;DHT22;4524;51.364;5.448;2023-09-08T13:10:54;30.30;78.00
8979;DHT22;4524;51.364;5.448;2023-09-08T13:13:23;30.20;76.80
8979;DHT22;4524;51.364;5.448;2023-09-08T13:15:50;30.20;79.70
8979;DHT22;4524;51.364;5.448;2023-09-08T13:18:18;30.20;77.80
8979;DHT22;4524;51.364;5.448;2023-09-08T13:20:46;30.20;75.50
8979;DHT22;4524;51.364;5.448;2023-09-08T13:23:14;30.20;74.50
8979;DHT22;4524;51.364;5.448;2023-09-08T13:25:42;30.10;75.20
8979;DHT22;4524;51.364;5.448;2023-09-08T13:28:12;30.10;75.00
8979;DHT22;4524;51.364;5.448;2023-09-08T13:30:59;30.10;74.70
8979;DHT22;4524;51.364;5.448;2023-09-08T13:33:27;30.20;77.40
8979;DHT22;4524;51.364;5.448;2023-09-08T13:35:56;30.20;74.80
8979;DHT22;4524;51.364;5.448;2023-09-08T13:38:24;30.20;75.70
8979;DHT22;4524;51.364;5.448;2023-09-08T13:40:52;30.20;76.00
8979;DHT22;4524;51.364;5.448;2023-09-08T13:43:40;30.20;75.50
8979;DHT22;4524;51.364;5.448;2023-09-08T13:46:12;30.20;75.60
8979;DHT22;4524;51.364;5.448;2023-09-08T13:48:40;30.20;75.10
8979;DHT22;4524;51.364;5.448;2023-09-08T13:51:11;30.20;75.90
8979;DHT22;4524;51.364;5.448;2023-09-08T13:53:40;30.20;75.20
8979;DHT22;4524;51.364;5.448;2023-09-08T13:56:13;30.20;74.40
8979;DHT22;4524;51.364;5.448;2023-09-08T13:58:47;30.20;74.30
8979;DHT22;4524;51.364;5.448;2023-09-08T14:01:17;30.20;75.50
8979;DHT22;4524;51.364;5.448;2023-09-08T14:03:47;30.20;75.80
8979;DHT22;4524;51.364;5.448;2023-09-08T14:06:21;30.20;74.10
8979;DHT22;4524;51.364;5.448;2023-09-08T14:08:57;30.20;74.30
8979;DHT22;4524;51.364;5.448;2023-09-08T14:11:27;30.20;73.50
8979;DHT22;4524;51.364;5.448;2023-09-08T14:14:17;30.20;76.00
8979;DHT22;4524;51.364;5.448;2023-09-08T14:16:45;30.20;75.20
8979;DHT22;4524;51.364;5.448;2023-09-08T14:19:13;30.20;75.20
8979;DHT22;4524;51.364;5.448;2023-09-08T14:21:41;30.20;75.30
8979;DHT22;4524;51.364;5.448;2023-09-08T14:24:28;30.30;74.20
8979;DHT22;4524;51.364;5.448;2023-09-08T14:26:56;30.30;74.50
8979;DHT22;4524;51.364;5.448;2023-09-08T14:29:25;30.30;72.20
8979;DHT22;4524;51.364;5.448;2023-09-08T14:31:53;30.30;73.10
8979;DHT22;4524;51.364;5.448;2023-09-08T14:34:21;30.20;74.70
8979;DHT22;4524;51.364;5.448;2023-09-08T14:37:07;30.20;73.80
8979;DHT22;4524;51.364;5.448;2023-09-08T14:39:37;30.20;72.10
8979;DHT22;4524;51.364;5.448;2023-09-08T14:42:05;30.10;73.70
8979;DHT22;4524;51.364;5.448;2023-09-08T14:44:34;30.10;75.10
8979;DHT22;4524;51.364;5.448;2023-09-08T14:47:03;30.20;73.70
8979;DHT22;4524;51.364;5.448;2023-09-08T14:49:31;30.20;74.40
8979;DHT22;4524;51.364;5.448;2023-09-08T14:51:59;30.10;74.00
8979;DHT22;4524;51.364;5.448;2023-09-08T14:54:27;30.10;76.30
8979;DHT22;4524;51.364;5.448;2023-09-08T14:56:55;30.10;75.60
8979;DHT22;4524;51.364;5.448;2023-09-08T14:59:23;30.10;77.50
8979;DHT22;4524;51.364;5.448;2023-09-08T15:01:52;30.10;77.00
8979;DHT22;4524;51.364;5.448;2023-09-08T15:04:21;30.10;77.50
8979;DHT22;4524;51.364;5.448;2023-09-08T15:06:49;30.10;75.20
8979;DHT22;4524;51.364;5.448;2023-09-08T15:09:17;30.10;75.80
8979;DHT22;4524;51.364;5.448;2023-09-08T15:11:45;30.10;76.30
8979;DHT22;4524;51.364;5.448;2023-09-08T15:14:13;30.00;74.80
8979;DHT22;4524;51.364;5.448;2023-09-08T15:16:41;30.00;76.50
8979;DHT22;4524;51.364;5.448;2023-09-08T15:19:10;30.00;76.00
8979;DHT22;4524;51.364;5.448;2023-09-08T15:21:39;29.90;78.00
8979;DHT22;4524;51.364;5.448;2023-09-08T15:24:07;29.80;81.10
8979;DHT22;4524;51.364;5.448;2023-09-08T15:26:35;29.90;78.70
8979;DHT22;4524;51.364;5.448;2023-09-08T15:29:04;29.90;76.10
8979;DHT22;4524;51.364;5.448;2023-09-08T15:31:32;29.80;74.50
8979;DHT22;4524;51.364;5.448;2023-09-08T15:34:00;29.80;75.50
8979;DHT22;4524;51.364;5.448;2023-09-08T15:36:30;29.80;74.60
8979;DHT22;4524;51.364;5.448;2023-09-08T15:38:58;29.70;80.10
8979;DHT22;4524;51.364;5.448;2023-09-08T15:41:26;29.70;77.60
8979;DHT22;4524;51.364;5.448;2023-09-08T15:43:53;29.60;79.80
8979;DHT22;4524;51.364;5.448;2023-09-08T15:46:22;29.50;80.60
8979;DHT22;4524;51.364;5.448;2023-09-08T15:48:50;29.50;79.70
8979;DHT22;4524;51.364;5.448;2023-09-08T15:51:18;29.40;80.10
8979;DHT22;4524;51.364;5.448;2023-09-08T15:53:48;29.40;82.00
8979;DHT22;4524;51.364;5.448;2023-09-08T15:56:15;29.30;82.10
8979;DHT22;4524;51.364;5.448;2023-09-08T15:58:43;29.30;82.60
8979;DHT22;4524;51.364;5.448;2023-09-08T16:01:11;29.30;83.70
8979;DHT22;4524;51.364;5.448;2023-09-08T16:03:40;29.30;82.40
8979;DHT22;4524;51.364;5.448;2023-09-08T16:06:09;29.30;81.40
8979;DHT22;4524;51.364;5.448;2023-09-08T16:08:39;29.30;84.30
8979;DHT22;4524;51.364;5.448;2023-09-08T16:11:09;29.30;81.60
8979;DHT22;4524;51.364;5.448;2023-09-08T16:13:37;29.20;85.80
8979;DHT22;4524;51.364;5.448;2023-09-08T16:16:05;29.20;86.30
8979;DHT22;4524;51.364;5.448;2023-09-08T16:18:33;29.00;89.10
8979;DHT22;4524;51.364;5.448;2023-09-08T16:21:01;29.00;86.00
8979;DHT22;4524;51.364;5.448;2023-09-08T16:23:29;29.00;83.00